sensor_id;sensor_type;location;lat;lon;timestamp;P1;durP1;ratioP1;P2;durP2;ratioP2
9256;SDS011;4665;51.368;6.782;2023-08-07T00:02:01;6.60;;;3.40;;
9256;SDS011;4665;51.368;6.782;2023-08-07T00:04:28;8.47;;;3.53;;
9256;SDS011;4665;51.368;6.782;2023-08-07T00:06:53;8.30;;;3.47;;
9256;SDS011;4665;51.368;6.782;2023-08-07T00:09:18;7.57;;;3.13;;
9256;SDS011;4665;51.368;6.782;2023-08-07T00:11:44;6.87;;;2.93;;
9256;SDS011;4665;51.368;6.782;2023-08-07T00:14:09;7.13;;;2.90;;
9256;SDS011;4665;51.368;6.782;2023-08-07T00:16:36;7.03;;;3.10;;
9256;SDS011;4665;51.368;6.782;2023-08-07T00:19:02;4.97;;;2.93;;
9256;SDS011;4665;51.368;6.782;2023-08-07T00:21:29;9.00;;;2.90;;
9256;SDS011;4665;51.368;6.782;2023-08-07T00:23:54;6.50;;;2.80;;
9256;SDS011;4665;51.368;6.782;2023-08-07T00:26:20;7.37;;;2.60;;
9256;SDS011;4665;51.368;6.782;2023-08-07T00:28:46;6.60;;;3.10;;
9256;SDS011;4665;51.368;6.782;2023-08-07T00:31:11;7.83;;;2.63;;
9256;SDS011;4665;51.368;6.782;2023-08-07T00:33:37;6.30;;;2.90;;
9256;SDS011;4665;51.368;6.782;2023-08-07T00:36:03;7.30;;;2.73;;
9256;SDS011;4665;51.368;6.782;2023-08-07T00:38:29;5.93;;;2.97;;
9256;SDS011;4665;51.368;6.782;2023-08-07T00:40:54;8.43;;;2.60;;
9256;SDS011;4665;51.368;6.782;2023-08-07T00:43:20;8.80;;;3.10;;
9256;SDS011;4665;51.368;6.782;2023-08-07T00:45:46;3.90;;;2.47;;
9256;SDS011;4665;51.368;6.782;2023-08-07T00:48:12;6.13;;;2.90;;
9256;SDS011;4665;51.368;6.782;2023-08-07T00:50:40;8.57;;;3.20;;
9256;SDS011;4665;51.368;6.782;2023-08-07T00:53:07;6.87;;;3.10;;
9256;SDS011;4665;51.368;6.782;2023-08-07T00:55:33;8.83;;;3.57;;
9256;SDS011;4665;51.368;6.782;2023-08-07T00:58:00;5.57;;;2.73;;
9256;SDS011;4665;51.368;6.782;2023-08-07T01:00:26;6.20;;;2.80;;
9256;SDS011;4665;51.368;6.782;2023-08-07T01:02:54;9.27;;;2.77;;
9256;SDS011;4665;51.368;6.782;2023-08-07T01:05:21;8.53;;;3.50;;
9256;SDS011;4665;51.368;6.782;2023-08-07T01:07:46;7.97;;;3.70;;
9256;SDS011;4665;51.368;6.782;2023-08-07T01:10:13;8.40;;;4.00;;
9256;SDS011;4665;51.368;6.782;2023-08-07T01:12:45;7.90;;;3.40;;
9256;SDS011;4665;51.368;6.782;2023-08-07T01:15:25;13.53;;;4.83;;
9256;SDS011;4665;51.368;6.782;2023-08-07T01:17:55;8.30;;;3.97;;
9256;SDS011;4665;51.368;6.782;2023-08-07T01:20:22;6.37;;;2.93;;
9256;SDS011;4665;51.368;6.782;2023-08-07T01:22:48;8.67;;;4.40;;
9256;SDS011;4665;51.368;6.782;2023-08-07T01:25:13;10.87;;;4.00;;
9256;SDS011;4665;51.368;6.782;2023-08-07T01:30:26;10.37;;;4.50;;
9256;SDS011;4665;51.368;6.782;2023-08-07T01:33:04;11.10;;;4.87;;
9256;SDS011;4665;51.368;6.782;2023-08-07T01:35:43;14.60;;;6.13;;
9256;SDS011;4665;51.368;6.782;2023-08-07T01:38:11;14.77;;;6.77;;
9256;SDS011;4665;51.368;6.782;2023-08-07T01:40:38;12.83;;;5.73;;
9256;SDS011;4665;51.368;6.782;2023-08-07T01:43:05;12.20;;;6.77;;
9256;SDS011;4665;51.368;6.782;2023-08-07T01:45:31;10.67;;;5.60;;
9256;SDS011;4665;51.368;6.782;2023-08-07T01:47:56;13.73;;;6.00;;
9256;SDS011;4665;51.368;6.782;2023-08-07T01:50:22;12.23;;;5.43;;
9256;SDS011;4665;51.368;6.782;2023-08-07T01:52:49;10.80;;;5.80;;
9256;SDS011;4665;51.368;6.782;2023-08-07T01:55:15;14.20;;;5.97;;
9256;SDS011;4665;51.368;6.782;2023-08-07T01:57:41;14.97;;;8.03;;
9256;SDS011;4665;51.368;6.782;2023-08-07T02:00:07;15.73;;;9.50;;
9256;SDS011;4665;51.368;6.782;2023-08-07T02:02:33;20.80;;;10.60;;
9256;SDS011;4665;51.368;6.782;2023-08-07T02:04:59;15.10;;;9.73;;
9256;SDS011;4665;51.368;6.782;2023-08-07T02:07:25;14.53;;;8.03;;
9256;SDS011;4665;51.368;6.782;2023-08-07T02:09:50;11.50;;;5.77;;
9256;SDS011;4665;51.368;6.782;2023-08-07T02:12:17;13.87;;;7.10;;
9256;SDS011;4665;51.368;6.782;2023-08-07T02:14:42;11.73;;;6.00;;
9256;SDS011;4665;51.368;6.782;2023-08-07T02:17:07;9.40;;;5.23;;
9256;SDS011;4665;51.368;6.782;2023-08-07T02:19:33;11.57;;;5.70;;
9256;SDS011;4665;51.368;6.782;2023-08-07T02:21:59;12.43;;;5.60;;
9256;SDS011;4665;51.368;6.782;2023-08-07T02:24:24;11.83;;;5.67;;
9256;SDS011;4665;51.368;6.782;2023-08-07T02:26:49;8.43;;;4.93;;
9256;SDS011;4665;51.368;6.782;2023-08-07T02:29:15;8.93;;;4.80;;
9256;SDS011;4665;51.368;6.782;2023-08-07T02:31:40;8.07;;;4.63;;
9256;SDS011;4665;51.368;6.782;2023-08-07T02:34:06;8.40;;;3.63;;
9256;SDS011;4665;51.368;6.782;2023-08-07T02:36:32;8.33;;;3.60;;
9256;SDS011;4665;51.368;6.782;2023-08-07T02:38:57;6.37;;;3.60;;
9256;SDS011;4665;51.368;6.782;2023-08-07T02:41:22;10.50;;;4.00;;
9256;SDS011;4665;51.368;6.782;2023-08-07T02:43:48;13.40;;;4.07;;
9256;SDS011;4665;51.368;6.782;2023-08-07T02:46:13;10.13;;;3.43;;
9256;SDS011;4665;51.368;6.782;2023-08-07T02:48:39;8.17;;;2.97;;
9256;SDS011;4665;51.368;6.782;2023-08-07T02:51:05;8.97;;;3.23;;
9256;SDS011;4665;51.368;6.782;2023-08-07T02:53:31;8.27;;;3.10;;
9256;SDS011;4665;51.368;6.782;2023-08-07T02:55:56;5.40;;;3.13;;
9256;SDS011;4665;51.368;6.782;2023-08-07T02:58:22;8.17;;;4.10;;
9256;SDS011;4665;51.368;6.782;2023-08-07T03:00:47;8.43;;;3.80;;
9256;SDS011;4665;51.368;6.782;2023-08-07T03:03:13;9.80;;;3.60;;
9256;SDS011;4665;51.368;6.782;2023-08-07T03:05:38;5.87;;;3.30;;
9256;SDS011;4665;51.368;6.782;2023-08-07T03:08:03;8.97;;;3.27;;
9256;SDS011;4665;51.368;6.782;2023-08-07T03:10:29;8.30;;;3.40;;
9256;SDS011;4665;51.368;6.782;2023-08-07T03:12:54;11.27;;;3.67;;
9256;SDS011;4665;51.368;6.782;2023-08-07T03:15:20;14.73;;;4.33;;
9256;SDS011;4665;51.368;6.782;2023-08-07T03:17:45;12.90;;;3.67;;
9256;SDS011;4665;51.368;6.782;2023-08-07T03:20:11;10.90;;;4.20;;
9256;SDS011;4665;51.368;6.782;2023-08-07T03:22:37;10.03;;;4.90;;
9256;SDS011;4665;51.368;6.782;2023-08-07T03:25:02;15.37;;;5.10;;
9256;SDS011;4665;51.368;6.782;2023-08-07T03:27:29;14.77;;;6.63;;
9256;SDS011;4665;51.368;6.782;2023-08-07T03:29:54;13.63;;;7.47;;
9256;SDS011;4665;51.368;6.782;2023-08-07T03:32:20;13.07;;;7.67;;
9256;SDS011;4665;51.368;6.782;2023-08-07T03:34:45;15.97;;;7.87;;
9256;SDS011;4665;51.368;6.782;2023-08-07T03:37:11;16.47;;;7.13;;
9256;SDS011;4665;51.368;6.782;2023-08-07T03:39:36;17.50;;;7.97;;
9256;SDS011;4665;51.368;6.782;2023-08-07T03:42:01;14.67;;;7.03;;
9256;SDS011;4665;51.368;6.782;2023-08-07T03:44:27;13.17;;;6.97;;
9256;SDS011;4665;51.368;6.782;2023-08-07T03:46:52;16.97;;;7.53;;
9256;SDS011;4665;51.368;6.782;2023-08-07T03:49:20;11.60;;;5.20;;
9256;SDS011;4665;51.368;6.782;2023-08-07T03:51:46;13.47;;;4.93;;
9256;SDS011;4665;51.368;6.782;2023-08-07T03:54:11;11.77;;;4.43;;
9256;SDS011;4665;51.368;6.782;2023-08-07T03:56:37;8.47;;;4.20;;
9256;SDS011;4665;51.368;6.782;2023-08-07T03:59:03;11.40;;;4.07;;
9256;SDS011;4665;51.368;6.782;2023-08-07T04:01:28;11.07;;;3.83;;
9256;SDS011;4665;51.368;6.782;2023-08-07T04:03:54;10.43;;;4.17;;
9256;SDS011;4665;51.368;6.782;2023-08-07T04:06:20;11.60;;;4.50;;
9256;SDS011;4665;51.368;6.782;2023-08-07T04:08:46;11.17;;;4.57;;
9256;SDS011;4665;51.368;6.782;2023-08-07T04:11:12;11.17;;;4.43;;
9256;SDS011;4665;51.368;6.782;2023-08-07T04:13:38;11.83;;;5.03;;
9256;SDS011;4665;51.368;6.782;2023-08-07T04:16:03;11.53;;;4.17;;
9256;SDS011;4665;51.368;6.782;2023-08-07T04:18:30;10.37;;;5.00;;
9256;SDS011;4665;51.368;6.782;2023-08-07T04:20:58;9.67;;;4.10;;
9256;SDS011;4665;51.368;6.782;2023-08-07T04:23:24;11.10;;;4.33;;
9256;SDS011;4665;51.368;6.782;2023-08-07T04:25:50;10.07;;;4.87;;
9256;SDS011;4665;51.368;6.782;2023-08-07T04:28:17;10.30;;;5.30;;
9256;SDS011;4665;51.368;6.782;2023-08-07T04:30:55;13.83;;;6.00;;
9256;SDS011;4665;51.368;6.782;2023-08-07T04:33:20;16.60;;;6.13;;
9256;SDS011;4665;51.368;6.782;2023-08-07T04:35:46;19.60;;;7.57;;
9256;SDS011;4665;51.368;6.782;2023-08-07T04:38:13;14.60;;;7.20;;
9256;SDS011;4665;51.368;6.782;2023-08-07T04:40:43;13.63;;;7.83;;
9256;SDS011;4665;51.368;6.782;2023-08-07T04:43:12;15.37;;;7.10;;
9256;SDS011;4665;51.368;6.782;2023-08-07T04:45:41;10.57;;;5.17;;
9256;SDS011;4665;51.368;6.782;2023-08-07T04:48:07;12.93;;;5.03;;
9256;SDS011;4665;51.368;6.782;2023-08-07T04:50:33;12.13;;;5.07;;
9256;SDS011;4665;51.368;6.782;2023-08-07T04:52:59;6.73;;;4.03;;
9256;SDS011;4665;51.368;6.782;2023-08-07T04:55:25;9.40;;;3.80;;
9256;SDS011;4665;51.368;6.782;2023-08-07T04:57:50;6.17;;;3.77;;
9256;SDS011;4665;51.368;6.782;2023-08-07T05:00:19;11.17;;;4.70;;
9256;SDS011;4665;51.368;6.782;2023-08-07T05:02:45;13.30;;;5.07;;
9256;SDS011;4665;51.368;6.782;2023-08-07T05:05:10;15.17;;;5.10;;
9256;SDS011;4665;51.368;6.782;2023-08-07T05:07:36;12.63;;;4.57;;
9256;SDS011;4665;51.368;6.782;2023-08-07T05:10:02;9.10;;;3.93;;
9256;SDS011;4665;51.368;6.782;2023-08-07T05:12:28;6.60;;;3.67;;
9256;SDS011;4665;51.368;6.782;2023-08-07T05:14:54;8.47;;;3.93;;
9256;SDS011;4665;51.368;6.782;2023-08-07T05:17:19;9.07;;;3.97;;
9256;SDS011;4665;51.368;6.782;2023-08-07T05:19:45;10.40;;;3.80;;
9256;SDS011;4665;51.368;6.782;2023-08-07T05:22:10;10.07;;;4.60;;
9256;SDS011;4665;51.368;6.782;2023-08-07T05:24:35;11.53;;;4.70;;
9256;SDS011;4665;51.368;6.782;2023-08-07T05:27:05;12.00;;;4.83;;
9256;SDS011;4665;51.368;6.782;2023-08-07T05:29:33;8.70;;;4.17;;
9256;SDS011;4665;51.368;6.782;2023-08-07T05:31:58;10.77;;;4.13;;
9256;SDS011;4665;51.368;6.782;2023-08-07T05:34:24;8.20;;;3.93;;
9256;SDS011;4665;51.368;6.782;2023-08-07T05:36:49;12.90;;;4.60;;
9256;SDS011;4665;51.368;6.782;2023-08-07T05:39:15;9.83;;;4.83;;
9256;SDS011;4665;51.368;6.782;2023-08-07T05:41:40;8.83;;;5.07;;
9256;SDS011;4665;51.368;6.782;2023-08-07T05:44:06;13.13;;;4.93;;
9256;SDS011;4665;51.368;6.782;2023-08-07T05:46:31;9.70;;;4.50;;
9256;SDS011;4665;51.368;6.782;2023-08-07T05:48:56;13.90;;;4.97;;
9256;SDS011;4665;51.368;6.782;2023-08-07T05:51:22;13.57;;;5.37;;
9256;SDS011;4665;51.368;6.782;2023-08-07T05:53:47;12.53;;;7.97;;
9256;SDS011;4665;51.368;6.782;2023-08-07T05:56:13;14.53;;;7.13;;
9256;SDS011;4665;51.368;6.782;2023-08-07T05:58:39;13.10;;;7.07;;
9256;SDS011;4665;51.368;6.782;2023-08-07T06:01:05;9.50;;;5.03;;
9256;SDS011;4665;51.368;6.782;2023-08-07T06:03:30;13.60;;;6.50;;
9256;SDS011;4665;51.368;6.782;2023-08-07T06:05:57;12.63;;;8.03;;
9256;SDS011;4665;51.368;6.782;2023-08-07T06:08:22;15.90;;;8.67;;
9256;SDS011;4665;51.368;6.782;2023-08-07T06:10:48;15.23;;;11.07;;
9256;SDS011;4665;51.368;6.782;2023-08-07T06:13:13;22.17;;;13.00;;
9256;SDS011;4665;51.368;6.782;2023-08-07T06:15:38;19.47;;;11.37;;
9256;SDS011;4665;51.368;6.782;2023-08-07T06:18:04;18.67;;;10.90;;
9256;SDS011;4665;51.368;6.782;2023-08-07T06:20:29;19.33;;;10.57;;
9256;SDS011;4665;51.368;6.782;2023-08-07T06:22:55;15.23;;;8.77;;
9256;SDS011;4665;51.368;6.782;2023-08-07T06:25:21;16.07;;;10.53;;
9256;SDS011;4665;51.368;6.782;2023-08-07T06:27:46;19.53;;;12.23;;
9256;SDS011;4665;51.368;6.782;2023-08-07T06:30:12;17.57;;;10.57;;
9256;SDS011;4665;51.368;6.782;2023-08-07T06:32:39;16.53;;;9.80;;
9256;SDS011;4665;51.368;6.782;2023-08-07T06:35:07;13.10;;;8.43;;
9256;SDS011;4665;51.368;6.782;2023-08-07T06:37:33;13.63;;;7.50;;
9256;SDS011;4665;51.368;6.782;2023-08-07T06:39:58;12.63;;;7.70;;
9256;SDS011;4665;51.368;6.782;2023-08-07T06:42:24;10.37;;;7.00;;
9256;SDS011;4665;51.368;6.782;2023-08-07T06:44:49;9.93;;;6.40;;
9256;SDS011;4665;51.368;6.782;2023-08-07T06:47:15;9.60;;;5.97;;
9256;SDS011;4665;51.368;6.782;2023-08-07T06:49:40;8.20;;;5.37;;
9256;SDS011;4665;51.368;6.782;2023-08-07T06:52:06;11.63;;;4.77;;
9256;SDS011;4665;51.368;6.782;2023-08-07T06:54:31;9.17;;;5.17;;
9256;SDS011;4665;51.368;6.782;2023-08-07T06:56:57;7.10;;;4.90;;
9256;SDS011;4665;51.368;6.782;2023-08-07T06:59:22;9.37;;;5.23;;
9256;SDS011;4665;51.368;6.782;2023-08-07T07:01:48;11.63;;;6.00;;
9256;SDS011;4665;51.368;6.782;2023-08-07T07:04:14;14.40;;;7.70;;
9256;SDS011;4665;51.368;6.782;2023-08-07T07:06:39;15.70;;;8.47;;
9256;SDS011;4665;51.368;6.782;2023-08-07T07:09:05;12.10;;;7.90;;
9256;SDS011;4665;51.368;6.782;2023-08-07T07:11:30;18.00;;;10.27;;
9256;SDS011;4665;51.368;6.782;2023-08-07T07:13:56;18.60;;;9.30;;
9256;SDS011;4665;51.368;6.782;2023-08-07T07:16:21;14.00;;;8.53;;
9256;SDS011;4665;51.368;6.782;2023-08-07T07:18:47;11.23;;;5.50;;
9256;SDS011;4665;51.368;6.782;2023-08-07T07:21:14;8.83;;;5.73;;
9256;SDS011;4665;51.368;6.782;2023-08-07T07:23:40;10.37;;;5.33;;
9256;SDS011;4665;51.368;6.782;2023-08-07T07:26:05;8.80;;;4.87;;
9256;SDS011;4665;51.368;6.782;2023-08-07T07:28:31;7.10;;;4.63;;
9256;SDS011;4665;51.368;6.782;2023-08-07T07:30:59;9.87;;;4.40;;
9256;SDS011;4665;51.368;6.782;2023-08-07T07:33:24;4.97;;;3.53;;
9256;SDS011;4665;51.368;6.782;2023-08-07T07:35:51;8.77;;;4.40;;
9256;SDS011;4665;51.368;6.782;2023-08-07T07:38:17;12.00;;;3.90;;
9256;SDS011;4665;51.368;6.782;2023-08-07T07:40:49;10.07;;;3.73;;
9256;SDS011;4665;51.368;6.782;2023-08-07T07:43:14;9.17;;;3.87;;
9256;SDS011;4665;51.368;6.782;2023-08-07T07:45:40;9.23;;;4.90;;
9256;SDS011;4665;51.368;6.782;2023-08-07T07:48:05;6.73;;;3.73;;
9256;SDS011;4665;51.368;6.782;2023-08-07T07:50:33;10.97;;;4.50;;
9256;SDS011;4665;51.368;6.782;2023-08-07T07:52:58;9.27;;;3.97;;
9256;SDS011;4665;51.368;6.782;2023-08-07T07:55:24;10.03;;;4.10;;
9256;SDS011;4665;51.368;6.782;2023-08-07T07:57:50;6.77;;;4.27;;
9256;SDS011;4665;51.368;6.782;2023-08-07T08:00:16;11.40;;;4.57;;
9256;SDS011;4665;51.368;6.782;2023-08-07T08:02:41;12.07;;;3.70;;
9256;SDS011;4665;51.368;6.782;2023-08-07T08:05:08;6.83;;;4.77;;
9256;SDS011;4665;51.368;6.782;2023-08-07T08:07:35;7.70;;;4.70;;
9256;SDS011;4665;51.368;6.782;2023-08-07T08:10:02;8.57;;;4.70;;
9256;SDS011;4665;51.368;6.782;2023-08-07T08:12:29;10.10;;;5.40;;
9256;SDS011;4665;51.368;6.782;2023-08-07T08:14:55;8.83;;;4.93;;
9256;SDS011;4665;51.368;6.782;2023-08-07T08:17:21;7.97;;;4.83;;
9256;SDS011;4665;51.368;6.782;2023-08-07T08:19:46;8.93;;;4.50;;
9256;SDS011;4665;51.368;6.782;2023-08-07T08:22:11;5.37;;;3.57;;
9256;SDS011;4665;51.368;6.782;2023-08-07T08:24:37;8.90;;;3.37;;
9256;SDS011;4665;51.368;6.782;2023-08-07T08:27:03;6.10;;;3.77;;
9256;SDS011;4665;51.368;6.782;2023-08-07T08:29:29;8.00;;;3.07;;
9256;SDS011;4665;51.368;6.782;2023-08-07T08:31:54;5.80;;;3.13;;
9256;SDS011;4665;51.368;6.782;2023-08-07T08:34:20;7.20;;;3.30;;
9256;SDS011;4665;51.368;6.782;2023-08-07T08:36:46;6.87;;;3.60;;
9256;SDS011;4665;51.368;6.782;2023-08-07T08:39:12;6.37;;;3.30;;
9256;SDS011;4665;51.368;6.782;2023-08-07T08:41:38;8.20;;;3.47;;
9256;SDS011;4665;51.368;6.782;2023-08-07T08:44:06;8.73;;;3.20;;
9256;SDS011;4665;51.368;6.782;2023-08-07T08:46:32;4.97;;;3.00;;
9256;SDS011;4665;51.368;6.782;2023-08-07T08:48:59;7.67;;;3.30;;
9256;SDS011;4665;51.368;6.782;2023-08-07T08:51:28;7.10;;;3.33;;
9256;SDS011;4665;51.368;6.782;2023-08-07T08:53:55;5.97;;;3.10;;
9256;SDS011;4665;51.368;6.782;2023-08-07T08:56:22;7.27;;;3.57;;
9256;SDS011;4665;51.368;6.782;2023-08-07T08:58:51;6.03;;;3.77;;
9256;SDS011;4665;51.368;6.782;2023-08-07T09:01:17;5.57;;;2.90;;
9256;SDS011;4665;51.368;6.782;2023-08-07T09:03:44;8.50;;;3.03;;
9256;SDS011;4665;51.368;6.782;2023-08-07T09:06:10;6.17;;;3.30;;
9256;SDS011;4665;51.368;6.782;2023-08-07T09:08:42;7.47;;;3.13;;
9256;SDS011;4665;51.368;6.782;2023-08-07T09:11:10;5.87;;;3.87;;
9256;SDS011;4665;51.368;6.782;2023-08-07T09:13:36;8.77;;;3.90;;
9256;SDS011;4665;51.368;6.782;2023-08-07T09:16:03;10.87;;;4.60;;
9256;SDS011;4665;51.368;6.782;2023-08-07T09:18:29;8.87;;;4.43;;
9256;SDS011;4665;51.368;6.782;2023-08-07T09:20:55;9.87;;;4.47;;
9256;SDS011;4665;51.368;6.782;2023-08-07T09:23:22;6.83;;;4.00;;
9256;SDS011;4665;51.368;6.782;2023-08-07T09:25:55;6.17;;;3.87;;
9256;SDS011;4665;51.368;6.782;2023-08-07T09:28:24;6.50;;;3.70;;
9256;SDS011;4665;51.368;6.782;2023-08-07T09:30:52;9.00;;;3.53;;
9256;SDS011;4665;51.368;6.782;2023-08-07T09:33:23;11.60;;;4.60;;
9256;SDS011;4665;51.368;6.782;2023-08-07T09:35:51;7.67;;;4.13;;
9256;SDS011;4665;51.368;6.782;2023-08-07T09:38:17;6.63;;;3.90;;
9256;SDS011;4665;51.368;6.782;2023-08-07T09:40:43;5.53;;;2.87;;
9256;SDS011;4665;51.368;6.782;2023-08-07T09:43:08;8.87;;;3.00;;
9256;SDS011;4665;51.368;6.782;2023-08-07T09:45:33;6.27;;;3.03;;
9256;SDS011;4665;51.368;6.782;2023-08-07T09:48:02;6.47;;;3.00;;
9256;SDS011;4665;51.368;6.782;2023-08-07T09:50:30;5.83;;;3.10;;
9256;SDS011;4665;51.368;6.782;2023-08-07T09:52:56;7.83;;;3.67;;
9256;SDS011;4665;51.368;6.782;2023-08-07T09:55:23;6.10;;;2.77;;
9256;SDS011;4665;51.368;6.782;2023-08-07T09:57:49;6.67;;;3.13;;
9256;SDS011;4665;51.368;6.782;2023-08-07T10:00:16;6.13;;;3.60;;
9256;SDS011;4665;51.368;6.782;2023-08-07T10:02:44;8.83;;;3.00;;
9256;SDS011;4665;51.368;6.782;2023-08-07T10:05:14;6.97;;;3.40;;
9256;SDS011;4665;51.368;6.782;2023-08-07T10:07:40;9.63;;;3.80;;
9256;SDS011;4665;51.368;6.782;2023-08-07T10:10:07;10.20;;;3.60;;
9256;SDS011;4665;51.368;6.782;2023-08-07T10:12:33;10.13;;;4.77;;
9256;SDS011;4665;51.368;6.782;2023-08-07T10:14:59;13.70;;;4.33;;
9256;SDS011;4665;51.368;6.782;2023-08-07T10:17:27;11.90;;;4.23;;
9256;SDS011;4665;51.368;6.782;2023-08-07T10:19:52;8.03;;;3.50;;
9256;SDS011;4665;51.368;6.782;2023-08-07T10:22:19;8.73;;;3.67;;
9256;SDS011;4665;51.368;6.782;2023-08-07T10:24:46;7.63;;;3.37;;
9256;SDS011;4665;51.368;6.782;2023-08-07T10:27:14;7.47;;;3.20;;
9256;SDS011;4665;51.368;6.782;2023-08-07T10:29:42;6.43;;;3.00;;
9256;SDS011;4665;51.368;6.782;2023-08-07T10:32:11;5.90;;;3.30;;
9256;SDS011;4665;51.368;6.782;2023-08-07T10:34:40;5.13;;;3.20;;
9256;SDS011;4665;51.368;6.782;2023-08-07T10:37:31;6.97;;;3.03;;
9256;SDS011;4665;51.368;6.782;2023-08-07T10:40:03;7.57;;;3.40;;
9256;SDS011;4665;51.368;6.782;2023-08-07T10:42:49;7.83;;;3.03;;
9256;SDS011;4665;51.368;6.782;2023-08-07T10:45:25;11.10;;;3.30;;
9256;SDS011;4665;51.368;6.782;2023-08-07T10:50:33;3.40;;;2.80;;
9256;SDS011;4665;51.368;6.782;2023-08-07T10:53:32;8.43;;;2.77;;
9256;SDS011;4665;51.368;6.782;2023-08-07T10:56:03;5.90;;;2.30;;
9256;SDS011;4665;51.368;6.782;2023-08-07T10:58:33;6.13;;;2.07;;
9256;SDS011;4665;51.368;6.782;2023-08-07T11:03:52;5.70;;;2.30;;
9256;SDS011;4665;51.368;6.782;2023-08-07T11:06:21;9.00;;;2.60;;
9256;SDS011;4665;51.368;6.782;2023-08-07T11:08:47;5.23;;;2.37;;
9256;SDS011;4665;51.368;6.782;2023-08-07T11:11:14;4.43;;;2.33;;
9256;SDS011;4665;51.368;6.782;2023-08-07T11:13:39;9.50;;;2.30;;
9256;SDS011;4665;51.368;6.782;2023-08-07T11:16:05;5.53;;;2.33;;
9256;SDS011;4665;51.368;6.782;2023-08-07T11:18:31;5.40;;;2.10;;
9256;SDS011;4665;51.368;6.782;2023-08-07T11:20:57;3.80;;;2.10;;
9256;SDS011;4665;51.368;6.782;2023-08-07T11:23:24;4.37;;;2.27;;
9256;SDS011;4665;51.368;6.782;2023-08-07T11:25:51;5.27;;;2.40;;
9256;SDS011;4665;51.368;6.782;2023-08-07T11:28:20;6.80;;;2.50;;
9256;SDS011;4665;51.368;6.782;2023-08-07T11:30:51;5.67;;;2.20;;
9256;SDS011;4665;51.368;6.782;2023-08-07T11:33:18;8.07;;;2.30;;
9256;SDS011;4665;51.368;6.782;2023-08-07T11:35:45;4.33;;;2.47;;
9256;SDS011;4665;51.368;6.782;2023-08-07T11:38:11;7.00;;;2.63;;
9256;SDS011;4665;51.368;6.782;2023-08-07T11:40:36;9.43;;;2.33;;
9256;SDS011;4665;51.368;6.782;2023-08-07T11:43:02;5.70;;;2.20;;
9256;SDS011;4665;51.368;6.782;2023-08-07T11:45:28;4.87;;;2.10;;
9256;SDS011;4665;51.368;6.782;2023-08-07T11:47:53;5.13;;;2.40;;
9256;SDS011;4665;51.368;6.782;2023-08-07T11:50:22;4.37;;;2.37;;
9256;SDS011;4665;51.368;6.782;2023-08-07T11:52:47;4.83;;;1.97;;
9256;SDS011;4665;51.368;6.782;2023-08-07T11:55:17;4.27;;;1.90;;
9256;SDS011;4665;51.368;6.782;2023-08-07T11:57:45;3.53;;;1.90;;
9256;SDS011;4665;51.368;6.782;2023-08-07T12:00:11;3.90;;;2.07;;
9256;SDS011;4665;51.368;6.782;2023-08-07T12:02:40;4.33;;;2.10;;
9256;SDS011;4665;51.368;6.782;2023-08-07T12:05:10;2.67;;;2.40;;
9256;SDS011;4665;51.368;6.782;2023-08-07T12:07:39;5.93;;;2.47;;
9256;SDS011;4665;51.368;6.782;2023-08-07T12:10:08;2.57;;;1.83;;
9256;SDS011;4665;51.368;6.782;2023-08-07T12:12:36;4.37;;;2.00;;
9256;SDS011;4665;51.368;6.782;2023-08-07T12:15:02;4.63;;;2.00;;
9256;SDS011;4665;51.368;6.782;2023-08-07T12:17:32;2.97;;;1.90;;
9256;SDS011;4665;51.368;6.782;2023-08-07T12:19:57;5.00;;;2.23;;
9256;SDS011;4665;51.368;6.782;2023-08-07T12:22:23;4.87;;;2.20;;
9256;SDS011;4665;51.368;6.782;2023-08-07T12:24:52;3.47;;;2.00;;
9256;SDS011;4665;51.368;6.782;2023-08-07T12:27:18;6.30;;;2.10;;
9256;SDS011;4665;51.368;6.782;2023-08-07T12:29:44;3.87;;;2.13;;
9256;SDS011;4665;51.368;6.782;2023-08-07T12:32:10;4.20;;;2.37;;
9256;SDS011;4665;51.368;6.782;2023-08-07T12:34:35;2.53;;;1.83;;
9256;SDS011;4665;51.368;6.782;2023-08-07T12:37:03;5.33;;;2.00;;
9256;SDS011;4665;51.368;6.782;2023-08-07T12:39:29;4.67;;;2.27;;
9256;SDS011;4665;51.368;6.782;2023-08-07T12:41:54;9.23;;;2.37;;
9256;SDS011;4665;51.368;6.782;2023-08-07T12:44:20;7.00;;;2.20;;
9256;SDS011;4665;51.368;6.782;2023-08-07T12:46:46;3.00;;;1.60;;
9256;SDS011;4665;51.368;6.782;2023-08-07T12:49:11;2.07;;;1.83;;
9256;SDS011;4665;51.368;6.782;2023-08-07T12:51:36;4.83;;;2.00;;
9256;SDS011;4665;51.368;6.782;2023-08-07T12:54:02;2.20;;;1.80;;
9256;SDS011;4665;51.368;6.782;2023-08-07T12:56:27;4.67;;;2.10;;
9256;SDS011;4665;51.368;6.782;2023-08-07T12:58:53;2.43;;;1.73;;
9256;SDS011;4665;51.368;6.782;2023-08-07T13:01:18;3.17;;;2.10;;
9256;SDS011;4665;51.368;6.782;2023-08-07T13:03:44;4.73;;;1.90;;
9256;SDS011;4665;51.368;6.782;2023-08-07T13:06:09;3.43;;;1.80;;
9256;SDS011;4665;51.368;6.782;2023-08-07T13:08:37;4.40;;;1.97;;
9256;SDS011;4665;51.368;6.782;2023-08-07T13:11:03;3.80;;;1.67;;
9256;SDS011;4665;51.368;6.782;2023-08-07T13:13:29;3.13;;;1.70;;
9256;SDS011;4665;51.368;6.782;2023-08-07T13:15:55;2.40;;;1.60;;
9256;SDS011;4665;51.368;6.782;2023-08-07T13:18:21;3.67;;;2.07;;
9256;SDS011;4665;51.368;6.782;2023-08-07T13:20:47;4.10;;;2.17;;
9256;SDS011;4665;51.368;6.782;2023-08-07T13:23:13;3.50;;;1.83;;
9256;SDS011;4665;51.368;6.782;2023-08-07T13:25:39;3.87;;;1.80;;
9256;SDS011;4665;51.368;6.782;2023-08-07T13:28:05;4.00;;;2.00;;
9256;SDS011;4665;51.368;6.782;2023-08-07T13:30:32;2.57;;;1.67;;
9256;SDS011;4665;51.368;6.782;2023-08-07T13:32:58;2.90;;;2.07;;
9256;SDS011;4665;51.368;6.782;2023-08-07T13:35:23;4.10;;;2.00;;
9256;SDS011;4665;51.368;6.782;2023-08-07T13:37:49;3.07;;;2.10;;
9256;SDS011;4665;51.368;6.782;2023-08-07T13:40:14;2.83;;;1.67;;
9256;SDS011;4665;51.368;6.782;2023-08-07T13:42:40;7.47;;;2.03;;
9256;SDS011;4665;51.368;6.782;2023-08-07T13:45:05;3.23;;;1.80;;
9256;SDS011;4665;51.368;6.782;2023-08-07T13:47:32;2.20;;;1.70;;
9256;SDS011;4665;51.368;6.782;2023-08-07T13:49:58;3.27;;;2.13;;
9256;SDS011;4665;51.368;6.782;2023-08-07T13:52:23;5.33;;;2.83;;
9256;SDS011;4665;51.368;6.782;2023-08-07T13:54:50;3.37;;;2.30;;
9256;SDS011;4665;51.368;6.782;2023-08-07T13:57:16;3.20;;;1.70;;
9256;SDS011;4665;51.368;6.782;2023-08-07T13:59:41;3.60;;;1.60;;
9256;SDS011;4665;51.368;6.782;2023-08-07T14:02:07;2.00;;;1.90;;
9256;SDS011;4665;51.368;6.782;2023-08-07T14:04:32;4.50;;;1.70;;
9256;SDS011;4665;51.368;6.782;2023-08-07T14:06:58;3.00;;;1.80;;
9256;SDS011;4665;51.368;6.782;2023-08-07T14:09:24;2.80;;;1.70;;
9256;SDS011;4665;51.368;6.782;2023-08-07T14:11:50;4.03;;;1.83;;
9256;SDS011;4665;51.368;6.782;2023-08-07T14:14:16;3.77;;;2.17;;
9256;SDS011;4665;51.368;6.782;2023-08-07T14:16:42;3.77;;;1.87;;
9256;SDS011;4665;51.368;6.782;2023-08-07T14:19:08;2.47;;;1.50;;
9256;SDS011;4665;51.368;6.782;2023-08-07T14:21:33;1.73;;;1.53;;
9256;SDS011;4665;51.368;6.782;2023-08-07T14:23:59;1.93;;;1.50;;
9256;SDS011;4665;51.368;6.782;2023-08-07T14:26:25;2.07;;;1.27;;
9256;SDS011;4665;51.368;6.782;2023-08-07T14:28:50;3.83;;;1.50;;
9256;SDS011;4665;51.368;6.782;2023-08-07T14:31:16;5.13;;;1.77;;
9256;SDS011;4665;51.368;6.782;2023-08-07T14:33:41;5.30;;;1.60;;
9256;SDS011;4665;51.368;6.782;2023-08-07T14:36:07;4.43;;;1.60;;
9256;SDS011;4665;51.368;6.782;2023-08-07T14:38:32;2.17;;;1.70;;
9256;SDS011;4665;51.368;6.782;2023-08-07T14:40:58;2.80;;;2.00;;
9256;SDS011;4665;51.368;6.782;2023-08-07T14:43:30;4.47;;;2.07;;
9256;SDS011;4665;51.368;6.782;2023-08-07T14:45:56;2.27;;;1.63;;
9256;SDS011;4665;51.368;6.782;2023-08-07T14:48:22;2.97;;;1.80;;
9256;SDS011;4665;51.368;6.782;2023-08-07T14:50:48;4.70;;;2.30;;
9256;SDS011;4665;51.368;6.782;2023-08-07T14:53:13;2.63;;;2.30;;
9256;SDS011;4665;51.368;6.782;2023-08-07T14:55:39;4.03;;;2.63;;
9256;SDS011;4665;51.368;6.782;2023-08-07T14:58:04;4.33;;;2.63;;
9256;SDS011;4665;51.368;6.782;2023-08-07T15:00:29;3.17;;;2.10;;
9256;SDS011;4665;51.368;6.782;2023-08-07T15:02:56;1.90;;;1.70;;
9256;SDS011;4665;51.368;6.782;2023-08-07T15:05:23;2.77;;;1.97;;
9256;SDS011;4665;51.368;6.782;2023-08-07T15:07:48;2.90;;;1.47;;
9256;SDS011;4665;51.368;6.782;2023-08-07T15:10:13;3.70;;;2.23;;
9256;SDS011;4665;51.368;6.782;2023-08-07T15:12:39;4.07;;;2.17;;
9256;SDS011;4665;51.368;6.782;2023-08-07T15:15:04;1.77;;;1.67;;